createdAt,value
2019-04-11T00:02:24.752Z,5.32
2019-04-11T00:04:52.898Z,5.18
2019-04-11T00:07:20.677Z,5.12
2019-04-11T00:09:49.315Z,5.18
2019-04-11T00:12:18.520Z,5.01
2019-04-11T00:14:46.922Z,4.94
2019-04-11T00:17:15.623Z,4.90
2019-04-11T00:19:43.367Z,4.96
2019-04-11T00:22:11.162Z,4.90
2019-04-11T00:24:38.897Z,4.86
2019-04-11T00:27:06.704Z,4.84
2019-04-11T00:29:34.535Z,4.85
2019-04-11T00:32:04.912Z,4.81
2019-04-11T00:34:33.056Z,4.75
2019-04-11T00:37:01.034Z,4.68
2019-04-11T00:39:29.825Z,4.65
2019-04-11T00:41:58.627Z,4.63
2019-04-11T00:44:27.219Z,4.51
2019-04-11T00:46:54.989Z,4.51
2019-04-11T00:49:22.721Z,4.43
2019-04-11T00:51:50.562Z,4.43
2019-04-11T00:54:18.505Z,4.43
2019-04-11T00:56:46.360Z,4.53
2019-04-11T00:59:14.199Z,4.52
2019-04-11T01:01:42.999Z,4.34
2019-04-11T01:04:11.680Z,4.40
2019-04-11T01:06:40.519Z,4.19
2019-04-11T01:09:09.593Z,4.23
2019-04-11T01:11:39.003Z,4.13
2019-04-11T01:14:07.760Z,4.22
2019-04-11T01:16:55.305Z,3.95
2019-04-11T01:19:24.764Z,3.89
2019-04-11T01:21:52.911Z,3.86
2019-04-11T01:24:21.834Z,3.76
2019-04-11T01:26:49.816Z,3.76
2019-04-11T01:29:17.672Z,3.73
2019-04-11T01:31:47.988Z,3.76
2019-04-11T01:34:16.211Z,3.79
2019-04-11T01:36:45.076Z,3.82
2019-04-11T01:39:25.375Z,3.90
2019-04-11T01:41:55.152Z,3.94
2019-04-11T01:44:22.984Z,3.73
2019-04-11T01:46:50.851Z,3.70
2019-04-11T01:49:20.438Z,3.80
2019-04-11T01:51:49.729Z,3.84
2019-04-11T01:54:17.520Z,3.78
2019-04-11T01:56:45.430Z,3.74
2019-04-11T01:59:13.260Z,3.73
2019-04-11T02:02:07.483Z,3.82
2019-04-11T02:04:41.030Z,3.70
2019-04-11T02:07:10.205Z,3.58
2019-04-11T02:09:38.097Z,3.52
2019-04-11T02:12:05.982Z,3.50
2019-04-11T02:14:33.711Z,3.48
2019-04-11T02:17:02.228Z,3.32
2019-04-11T02:19:30.088Z,3.24
2019-04-11T02:22:13.842Z,3.22
2019-04-11T02:24:50.355Z,3.08
2019-04-11T02:27:21.118Z,3.25
2019-04-11T02:29:48.971Z,3.25
2019-04-11T02:32:18.424Z,3.11
2019-04-11T02:34:48.681Z,3.01
2019-04-11T02:37:17.637Z,2.97
2019-04-11T02:39:47.129Z,2.97
2019-04-11T02:42:15.048Z,2.85
2019-04-11T02:44:59.731Z,2.89
2019-04-11T02:47:18.182Z,2.86
2019-04-11T02:49:43.657Z,2.87
2019-04-11T02:52:13.366Z,2.84
2019-04-11T02:54:42.956Z,2.79
2019-04-11T02:57:12.098Z,2.70
2019-04-11T02:59:40.977Z,2.69
2019-04-11T03:02:11.076Z,2.64
2019-04-11T03:04:39.383Z,2.52
2019-04-11T03:07:08.034Z,2.49
2019-04-11T03:09:37.483Z,2.46
2019-04-11T03:12:05.702Z,2.38
2019-04-11T03:14:54.061Z,2.46
2019-04-11T03:17:14.022Z,2.36
2019-04-11T03:19:49.510Z,2.47
2019-04-11T03:22:05.585Z,2.44
2019-04-11T03:24:35.778Z,2.35
2019-04-11T03:27:04.911Z,2.37
2019-04-11T03:29:35.483Z,2.28
2019-04-11T03:32:44.723Z,2.23
2019-04-11T03:39:56.842Z,2.16
2019-04-11T03:42:18.664Z,2.18
2019-04-11T03:44:39.445Z,2.07
2019-04-11T03:47:16.643Z,2.14
2019-04-11T03:49:43.339Z,2.30
2019-04-11T03:52:03.502Z,2.18
2019-04-11T03:54:31.894Z,2.13
2019-04-11T03:57:01.240Z,2.13
2019-04-11T03:59:31.255Z,2.19
2019-04-11T04:02:00.029Z,2.25
2019-04-11T04:04:29.017Z,2.17
2019-04-11T04:06:58.263Z,2.14
2019-04-11T04:09:28.403Z,2.01
2019-04-11T04:11:56.961Z,1.96
2019-04-11T04:14:42.858Z,1.96
2019-04-11T04:17:30.732Z,1.99
2019-04-11T04:20:06.859Z,1.96
2019-04-11T04:22:57.807Z,1.95
2019-04-11T04:25:26.203Z,1.94
2019-04-11T04:27:54.614Z,1.98
2019-04-11T04:30:24.774Z,1.95
2019-04-11T04:32:54.448Z,1.97
2019-04-11T04:35:24.121Z,1.96
2019-04-11T04:37:52.154Z,1.98
2019-04-11T04:40:35.566Z,1.85
2019-04-11T04:42:54.479Z,1.98
2019-04-11T04:45:21.448Z,1.85
2019-04-11T04:47:57.028Z,1.96
2019-04-11T04:50:20.046Z,1.96
2019-04-11T04:52:49.119Z,1.98
2019-04-11T04:55:17.455Z,2.02
2019-04-11T04:57:46.757Z,1.94
2019-04-11T05:00:15.112Z,1.85
2019-04-11T05:02:44.127Z,1.86
2019-04-11T05:05:13.647Z,1.96
2019-04-11T05:07:44.083Z,1.90
2019-04-11T05:10:13.300Z,1.90
2019-04-11T05:12:41.766Z,2.09
2019-04-11T05:15:10.182Z,2.10
2019-04-11T05:17:38.647Z,2.14
2019-04-11T05:20:07.462Z,2.15
2019-04-11T05:22:35.275Z,2.28
2019-04-11T05:25:03.844Z,2.22
2019-04-11T05:27:33.555Z,2.26
2019-04-11T05:30:01.334Z,2.31
2019-04-11T05:32:29.230Z,2.49
2019-04-11T05:34:56.977Z,2.40
2019-04-11T05:37:24.958Z,2.48
2019-04-11T05:39:52.768Z,2.87
2019-04-11T05:42:24.098Z,2.84
2019-04-11T05:44:51.450Z,2.93
2019-04-11T05:47:19.981Z,3.05
2019-04-11T05:50:10.028Z,2.93
2019-04-11T05:52:37.068Z,2.95
2019-04-11T05:55:09.604Z,3.10
2019-04-11T05:57:40.424Z,3.07
2019-04-11T06:00:15.838Z,3.37
2019-04-11T06:02:47.217Z,3.87
2019-04-11T06:05:37.911Z,4.20
2019-04-11T06:08:09.839Z,4.21
2019-04-11T06:10:45.124Z,4.11
2019-04-11T06:13:27.212Z,4.05
2019-04-11T06:15:59.420Z,4.00
2019-04-11T06:18:45.811Z,3.89
2019-04-11T06:21:29.109Z,3.94
2019-04-11T06:24:16.301Z,3.91
2019-04-11T06:26:58.955Z,3.86
2019-04-11T06:29:32.731Z,3.98
2019-04-11T06:32:21.474Z,4.16
2019-04-11T06:34:57.797Z,4.42
2019-04-11T06:37:57.008Z,4.51
2019-04-11T06:40:29.569Z,4.33
2019-04-11T06:43:07.809Z,4.46
2019-04-11T06:45:57.790Z,4.49
2019-04-11T06:48:40.055Z,4.56
2019-04-11T06:51:18.063Z,4.80
2019-04-11T06:53:50.443Z,5.00
2019-04-11T06:56:37.282Z,4.91
2019-04-11T06:59:10.104Z,5.02
2019-04-11T07:01:40.516Z,5.05
2019-04-11T07:04:29.712Z,5.13
2019-04-11T07:06:57.656Z,5.21
2019-04-11T07:09:50.821Z,5.15
2019-04-11T07:12:28.626Z,5.36
2019-04-11T07:15:06.875Z,5.43
2019-04-11T07:17:52.654Z,5.58
2019-04-11T07:20:38.120Z,5.76
2019-04-11T07:23:24.365Z,5.86
2019-04-11T07:26:12.483Z,6.00
2019-04-11T07:28:56.581Z,6.13
2019-04-11T07:31:44.361Z,6.25
2019-04-11T07:34:36.242Z,6.40
2019-04-11T07:37:30.296Z,6.67
2019-04-11T07:40:24.146Z,7.32
2019-04-11T07:43:18.476Z,8.19
2019-04-11T07:46:24.590Z,10.09
2019-04-11T07:48:55.098Z,12.56
2019-04-11T07:51:27.697Z,15.18
2019-04-11T07:53:56.865Z,17.47
2019-04-11T07:56:52.889Z,20.06
2019-04-11T07:59:39.704Z,21.87
2019-04-11T08:02:31.157Z,23.40
2019-04-11T08:05:24.685Z,25.07
2019-04-11T08:08:08.244Z,25.72
2019-04-11T08:10:50.568Z,27.23
2019-04-11T08:13:23.389Z,26.96
2019-04-11T08:16:09.115Z,27.56
2019-04-11T08:19:03.609Z,28.16
2019-04-11T08:21:52.988Z,28.41
2019-04-11T08:24:28.497Z,28.25
2019-04-11T08:27:15.526Z,27.95
2019-04-11T08:29:44.372Z,28.84
2019-04-11T08:32:30.280Z,29.87
2019-04-11T08:35:24.056Z,30.14
2019-04-11T08:38:02.376Z,29.85
2019-04-11T08:40:33.712Z,28.24
2019-04-11T08:43:06.676Z,27.29
2019-04-11T08:45:36.300Z,26.67
2019-04-11T08:48:05.487Z,23.28
2019-04-11T08:50:36.650Z,26.30
2019-04-11T08:53:22.554Z,24.96
2019-04-11T08:55:57.063Z,25.09
2019-04-11T08:58:28.828Z,25.35
2019-04-11T09:01:00.493Z,27.25
2019-04-11T09:04:09.180Z,26.79
2019-04-11T09:06:37.335Z,27.96
2019-04-11T09:09:33.362Z,28.21
2019-04-11T09:12:04.414Z,29.23
2019-04-11T09:15:07.098Z,25.99
2019-04-11T09:17:56.553Z,21.42
2019-04-11T09:20:37.980Z,17.17
2019-04-11T09:23:09.197Z,14.35
2019-04-11T09:26:07.961Z,13.77
2019-04-11T09:28:39.757Z,12.67
2019-04-11T09:31:30.253Z,11.96
2019-04-11T09:34:23.872Z,11.59
2019-04-11T09:37:18.484Z,11.15
2019-04-11T09:40:09.937Z,10.98
2019-04-11T09:43:01.685Z,10.93
2019-04-11T09:46:08.200Z,11.13
2019-04-11T09:48:58.022Z,11.02
2019-04-11T09:51:44.287Z,10.99
2019-04-11T09:54:30.383Z,10.52
2019-04-11T09:57:24.749Z,10.25
2019-04-11T10:00:18.594Z,10.42
2019-04-11T10:02:54.323Z,10.50
2019-04-11T10:05:26.508Z,10.66
2019-04-11T10:08:12.809Z,10.67
2019-04-11T10:11:17.722Z,10.52
2019-04-11T10:14:05.068Z,10.53
2019-04-11T10:16:52.520Z,10.68
2019-04-11T10:19:40.269Z,10.72
2019-04-11T10:22:20.634Z,10.57
2019-04-11T10:24:57.314Z,10.87
2019-04-11T10:27:57.268Z,11.08
2019-04-11T10:30:44.126Z,11.17
2019-04-11T10:33:33.143Z,10.83
2019-04-11T10:36:10.487Z,10.77
2019-04-11T10:38:38.397Z,10.55
2019-04-11T10:41:28.642Z,10.58
2019-04-11T10:43:57.175Z,10.61
2019-04-11T10:46:53.511Z,10.85
2019-04-11T10:49:39.620Z,11.04
2019-04-11T10:52:18.153Z,11.16
2019-04-11T10:55:03.087Z,10.80
2019-04-11T10:57:38.196Z,10.72
2019-04-11T11:00:12.915Z,10.64
2019-04-11T11:03:08.117Z,10.88
2019-04-11T11:05:38.132Z,11.26
2019-04-11T11:08:13.199Z,11.32
2019-04-11T11:10:41.876Z,11.44
2019-04-11T11:13:34.075Z,11.39
2019-04-11T11:16:02.310Z,12.06
2019-04-11T11:19:20.682Z,13.26
2019-04-11T11:21:27.575Z,14.62
2019-04-11T11:24:11.841Z,15.38
2019-04-11T11:26:41.049Z,13.43
2019-04-11T11:29:28.941Z,13.43
2019-04-11T11:32:07.134Z,12.88
2019-04-11T11:35:01.155Z,12.12
2019-04-11T11:37:37.501Z,11.97
2019-04-11T11:40:40.544Z,11.50
2019-04-11T11:43:16.940Z,11.58
2019-04-11T11:46:04.387Z,14.21
2019-04-11T11:48:39.766Z,14.27
2019-04-11T11:51:28.417Z,13.29
2019-04-11T11:54:07.157Z,12.39
2019-04-11T11:56:36.702Z,12.01
2019-04-11T11:59:11.324Z,11.50
2019-04-11T12:01:46.499Z,11.21
2019-04-11T12:04:35.303Z,11.16
2019-04-11T12:07:04.446Z,11.02
2019-04-11T12:09:51.334Z,11.08
2019-04-11T12:12:23.996Z,11.07
2019-04-11T12:15:14.207Z,10.93
2019-04-11T12:18:07.422Z,11.21
2019-04-11T12:20:44.825Z,11.09
2019-04-11T12:23:20.110Z,11.09
2019-04-11T12:25:47.850Z,11.03
2019-04-11T12:28:27.598Z,11.21
2019-04-11T12:31:01.392Z,11.30
2019-04-11T12:34:06.634Z,11.35
2019-04-11T12:36:43.062Z,11.16
2019-04-11T12:39:44.528Z,11.07
2019-04-11T12:42:20.831Z,11.69
2019-04-11T12:45:06.697Z,11.66
2019-04-11T12:47:39.865Z,12.02
2019-04-11T12:50:23.734Z,12.35
2019-04-11T12:53:11.138Z,12.85
2019-04-11T12:56:04.634Z,12.70
2019-04-11T12:58:35.964Z,12.34
2019-04-11T13:01:21.657Z,11.86
2019-04-11T13:04:20.540Z,11.72
2019-04-11T13:07:06.251Z,11.67
2019-04-11T13:09:53.582Z,11.71
2019-04-11T13:12:31.861Z,11.62
2019-04-11T13:15:14.598Z,11.60
2019-04-11T13:17:46.798Z,11.62
2019-04-11T13:20:32.798Z,11.53
2019-04-11T13:23:06.868Z,11.73
2019-04-11T13:26:02.853Z,11.57
2019-04-11T13:28:30.584Z,11.94
2019-04-11T13:31:16.068Z,12.27
2019-04-11T13:33:44.201Z,12.32
2019-04-11T13:36:27.765Z,12.56
2019-04-11T13:38:55.545Z,12.36
2019-04-11T13:41:58.053Z,12.34
2019-04-11T13:44:29.695Z,12.48
2019-04-11T13:47:15.485Z,12.26
2019-04-11T13:49:51.432Z,11.94
2019-04-11T13:52:38.783Z,11.52
2019-04-11T13:55:26.977Z,11.26
2019-04-11T13:58:14.413Z,10.87
2019-04-11T14:00:55.242Z,10.99
2019-04-11T14:03:45.687Z,11.07
2019-04-11T14:06:41.346Z,11.31
2019-04-11T14:09:34.601Z,11.21
2019-04-11T14:12:06.108Z,11.17
2019-04-11T14:14:56.583Z,11.54
2019-04-11T14:17:42.474Z,11.57
2019-04-11T14:20:30.560Z,11.38
2019-04-11T14:23:23.966Z,10.97
2019-04-11T14:26:03.630Z,10.86
2019-04-11T14:28:40.869Z,10.67
2019-04-11T14:31:40.704Z,10.64
2019-04-11T14:34:34.217Z,10.46
2019-04-11T14:37:12.202Z,10.64
2019-04-11T14:39:42.635Z,10.59
2019-04-11T14:42:35.412Z,10.35
2019-04-11T14:45:06.399Z,10.26
2019-04-11T14:47:56.640Z,10.31
2019-04-11T14:50:40.377Z,10.36
2019-04-11T14:53:17.884Z,10.48
2019-04-11T14:55:46.726Z,10.52
2019-04-11T14:58:45.118Z,10.17
2019-04-11T15:01:14.694Z,10.36
2019-04-11T15:04:00.473Z,10.42
2019-04-11T15:06:32.170Z,10.26
2019-04-11T15:09:25.450Z,9.93
2019-04-11T15:11:56.215Z,10.12
2019-04-11T15:14:52.248Z,10.20
2019-04-11T15:17:31.395Z,9.96
2019-04-11T15:20:13.805Z,9.94
2019-04-11T15:22:46.914Z,9.84
2019-04-11T15:25:22.043Z,9.86
2019-04-11T15:28:02.654Z,9.74
2019-04-11T15:30:31.443Z,9.49
2019-04-11T15:33:25.985Z,9.40
2019-04-11T15:35:57.615Z,9.32
2019-04-11T15:38:41.974Z,9.37
2019-04-11T15:41:09.785Z,9.41
2019-04-11T15:43:55.621Z,9.60
2019-04-11T15:46:30.600Z,9.58
2019-04-11T15:49:21.063Z,9.63
2019-04-11T15:51:50.763Z,9.78
2019-04-11T15:54:41.239Z,9.73
2019-04-11T15:57:34.705Z,9.22
2019-04-11T16:00:27.289Z,9.03
2019-04-11T16:02:57.968Z,9.12
2019-04-11T16:05:45.330Z,9.13
2019-04-11T16:08:17.202Z,8.99
2019-04-11T16:11:03.065Z,8.73
2019-04-11T16:13:41.259Z,8.94
2019-04-11T16:16:11.973Z,8.87
2019-04-11T16:18:56.978Z,8.78
2019-04-11T16:21:33.584Z,8.87
2019-04-11T16:24:09.735Z,8.97
2019-04-11T16:26:48.239Z,8.92
2019-04-11T16:29:24.051Z,8.94
2019-04-11T16:31:52.754Z,8.96
2019-04-11T16:34:31.828Z,8.99
2019-04-11T16:37:02.369Z,8.94
2019-04-11T16:39:52.170Z,8.95
2019-04-11T16:42:39.019Z,8.87
2019-04-11T16:45:30.020Z,8.68
2019-04-11T16:48:03.748Z,8.78
2019-04-11T16:50:31.856Z,8.76
2019-04-11T16:52:59.608Z,8.72
2019-04-11T16:55:27.702Z,8.74
2019-04-11T16:57:55.471Z,8.63
2019-04-11T17:00:23.342Z,8.46
2019-04-11T17:02:54.688Z,8.58
2019-04-11T17:05:20.816Z,8.70
2019-04-11T17:08:06.396Z,8.63
2019-04-11T17:10:52.385Z,8.62
2019-04-11T17:13:20.263Z,8.69
2019-04-11T17:15:48.069Z,8.64
2019-04-11T17:18:15.857Z,8.38
2019-04-11T17:20:43.595Z,8.20
2019-04-11T17:23:11.414Z,8.19
2019-04-11T17:25:39.179Z,8.08
2019-04-11T17:28:08.987Z,7.98
2019-04-11T17:30:36.562Z,7.96
2019-04-11T17:33:04.352Z,7.83
2019-04-11T17:35:32.302Z,7.76
2019-04-11T17:38:01.013Z,7.68
2019-04-11T17:40:29.816Z,7.71
2019-04-11T17:42:57.908Z,7.70
2019-04-11T17:45:25.689Z,7.84
2019-04-11T17:47:54.760Z,7.66
2019-04-11T17:50:23.117Z,7.55
2019-04-11T17:52:54.498Z,7.37
2019-04-11T17:55:23.623Z,7.50
2019-04-11T17:57:50.275Z,7.45
2019-04-11T18:00:24.408Z,7.41
2019-04-11T18:02:52.235Z,7.39
2019-04-11T18:05:20.140Z,7.39
2019-04-11T18:07:49.946Z,7.29
2019-04-11T18:10:17.598Z,7.35
2019-04-11T18:12:45.374Z,7.37
2019-04-11T18:15:13.257Z,7.50
2019-04-11T18:17:41.024Z,7.62
2019-04-11T18:20:09.058Z,7.60
2019-04-11T18:22:36.856Z,7.50
2019-04-11T18:25:04.872Z,7.35
2019-04-11T18:27:32.684Z,7.37
2019-04-11T18:30:00.457Z,7.33
2019-04-11T18:32:28.334Z,7.18
2019-04-11T18:34:56.086Z,7.20
2019-04-11T18:37:23.851Z,7.22
2019-04-11T18:39:51.624Z,7.03
2019-04-11T18:42:19.458Z,7.08
2019-04-11T18:44:47.173Z,6.91
2019-04-11T18:47:14.965Z,6.83
2019-04-11T18:49:42.753Z,6.95
2019-04-11T18:52:19.216Z,6.91
2019-04-11T18:54:40.264Z,7.14
2019-04-11T18:57:08.068Z,7.19
2019-04-11T18:59:35.807Z,7.03
2019-04-11T19:02:03.822Z,7.00
2019-04-11T19:04:32.854Z,6.98
2019-04-11T19:07:00.839Z,6.99
2019-04-11T19:09:28.895Z,7.02
2019-04-11T19:11:56.695Z,6.85
2019-04-11T19:14:24.998Z,6.77
2019-04-11T19:16:52.906Z,6.83
2019-04-11T19:19:20.673Z,6.64
2019-04-11T19:21:50.765Z,6.78
2019-04-11T19:24:18.095Z,6.78
2019-04-11T19:26:46.273Z,6.83
2019-04-11T19:29:14.862Z,6.72
2019-04-11T19:31:43.790Z,6.74
2019-04-11T19:34:11.598Z,6.88
2019-04-11T19:36:39.889Z,6.87
2019-04-11T19:39:13.544Z,6.81
2019-04-11T19:41:39.184Z,6.88
2019-04-11T19:44:06.965Z,6.95
2019-04-11T19:46:34.777Z,6.95
2019-04-11T19:49:02.576Z,6.94
2019-04-11T19:51:30.378Z,6.75
2019-04-11T19:53:58.182Z,6.84
2019-04-11T19:56:31.422Z,6.72
2019-04-11T19:59:01.164Z,6.64
2019-04-11T20:01:28.911Z,6.82
2019-04-11T20:03:56.703Z,6.83
2019-04-11T20:06:28.503Z,6.80
2019-04-11T20:08:56.307Z,6.78
2019-04-11T20:11:29.400Z,6.72
2019-04-11T20:14:00.089Z,6.80
2019-04-11T20:16:27.457Z,6.84
2019-04-11T20:18:57.491Z,6.86
2019-04-11T20:21:24.985Z,6.75
2019-04-11T20:23:52.786Z,6.84
2019-04-11T20:26:21.196Z,6.90
2019-04-11T20:28:50.913Z,6.87
2019-04-11T20:31:19.098Z,6.86
2019-04-11T20:33:46.865Z,6.66
2019-04-11T20:36:14.638Z,6.72
2019-04-11T20:38:44.759Z,6.75
2019-04-11T20:41:12.087Z,6.57
2019-04-11T20:43:39.854Z,6.59
2019-04-11T20:46:07.720Z,6.61
2019-04-11T20:48:35.525Z,6.58
2019-04-11T20:51:03.400Z,6.65
2019-04-11T20:53:36.538Z,6.65
2019-04-11T20:56:01.967Z,6.61
2019-04-11T20:58:29.760Z,6.50
2019-04-11T21:00:57.534Z,6.55
2019-04-11T21:03:25.274Z,6.62
2019-04-11T21:05:53.032Z,6.58
2019-04-11T21:08:20.819Z,6.60
2019-04-11T21:10:49.764Z,6.62
2019-04-11T21:13:17.529Z,6.65
2019-04-11T21:15:45.239Z,6.68
2019-04-11T21:18:13.040Z,6.65
2019-04-11T21:20:40.781Z,6.63
2019-04-11T21:23:08.550Z,6.57
2019-04-11T21:25:36.277Z,6.64
2019-04-11T21:28:04.019Z,6.67
2019-04-11T21:30:31.763Z,6.46
2019-04-11T21:33:01.125Z,6.39
2019-04-11T21:35:30.969Z,6.45
2019-04-11T21:38:00.324Z,6.51
2019-04-11T21:40:28.505Z,6.37
2019-04-11T21:42:56.312Z,6.41
2019-04-11T21:45:24.068Z,6.43
2019-04-11T21:47:51.835Z,6.38
2019-04-11T21:50:19.569Z,6.48
2019-04-11T21:52:47.349Z,6.55
2019-04-11T21:55:16.069Z,6.57
2019-04-11T21:57:48.586Z,6.55
2019-04-11T22:00:24.187Z,6.52
2019-04-11T22:02:54.379Z,6.52
2019-04-11T22:05:21.940Z,6.52
2019-04-11T22:07:49.669Z,6.37
2019-04-11T22:10:17.430Z,6.38
2019-04-11T22:12:45.183Z,6.37
2019-04-11T22:15:13.037Z,6.45
2019-04-11T22:17:42.951Z,6.43
2019-04-11T22:20:10.586Z,6.45
2019-04-11T22:22:38.321Z,6.58
2019-04-11T22:25:06.361Z,6.50
2019-04-11T22:27:34.136Z,6.36
2019-04-11T22:30:02.005Z,6.22
2019-04-11T22:32:29.735Z,6.22
2019-04-11T22:34:59.204Z,6.27
2019-04-11T22:37:27.749Z,6.19
2019-04-11T22:39:56.821Z,6.08
2019-04-11T22:42:24.654Z,6.21
2019-04-11T22:44:52.411Z,6.16
2019-04-11T22:47:20.146Z,6.25
2019-04-11T22:49:47.894Z,6.26
2019-04-11T22:52:15.930Z,6.19
2019-04-11T22:54:43.721Z,6.26
2019-04-11T22:57:12.174Z,6.27
2019-04-11T22:59:44.035Z,6.09
2019-04-11T23:02:32.729Z,6.18
2019-04-11T23:05:00.533Z,6.07
2019-04-11T23:07:28.295Z,6.23
2019-04-11T23:09:56.012Z,6.24
2019-04-11T23:12:23.769Z,6.06
2019-04-11T23:14:51.453Z,5.98
2019-04-11T23:17:19.187Z,6.07
2019-04-11T23:19:46.912Z,6.08
2019-04-11T23:22:14.624Z,6.07
2019-04-11T23:24:42.343Z,6.03
2019-04-11T23:27:10.042Z,6.05
2019-04-11T23:29:37.774Z,6.09
2019-04-11T23:32:05.577Z,6.10
2019-04-11T23:34:33.292Z,6.04
2019-04-11T23:37:00.982Z,6.10
2019-04-11T23:39:28.704Z,6.08
2019-04-11T23:41:56.414Z,5.95
2019-04-11T23:44:24.152Z,5.90
2019-04-11T23:46:52.636Z,5.93
2019-04-11T23:49:20.484Z,5.97
2019-04-11T23:51:48.214Z,5.89
2019-04-11T23:54:22.922Z,5.76
2019-04-11T23:56:45.594Z,5.98
2019-04-11T23:59:13.326Z,5.95
